Estación Meteorológica Peña el Pijo (Robertgarden) [ 12/11/18 10:19:56 CET ]

Fecha Hora Presion(HPa) Temp (°C) Humedad % Rocio (°C) Viento ( m/s) Direccion Lluvia 1Hora(mm) Lluvia 24H(mm) LLuvia Total(mm)
2018-Dec-06 01:01:54 1017.800 5.9 63 -0.6         154.88
2018-Dec-06 02:03:07 1017.400 5.1 65 -1.0         154.88
2018-Dec-06 03:01:44 1016.900 4.8 68 -0.6         154.88
2018-Dec-06 04:01:47 1017.100 3.8 69 -1.4         154.88
2018-Dec-06 05:01:43 1017.000 4.3 71 -0.5         154.88
2018-Dec-06 06:01:49 1017.100 3.3 72 -1.3         154.88
2018-Dec-06 07:01:49 1017.000 3.6 75 -0.4         154.88
2018-Dec-06 08:01:41 1017.300 3.6 73 -0.8         154.88
2018-Dec-06 09:01:45 1018.000 3.4 75 -0.6         154.88
2018-Dec-06 10:01:42 1018.300 10.2 70 5.0         154.88
2018-Dec-06 11:01:39 1018.000 16.1 46 4.4         154.88
2018-Dec-06 12:01:36 1017.400 21.2 36 5.4         154.88
2018-Dec-06 13:01:39 1016.500 22.6 25 1.4         154.88
2018-Dec-06 14:01:45 1016.100 24.8 22 1.5         154.88
2018-Dec-06 15:01:36 1015.900 24.2 21 0.4         154.88
2018-Dec-06 16:01:26 1015.700 22.9 21 -0.6         154.88
2018-Dec-06 17:01:31 1016.000 18.6 26 -1.5         154.88
2018-Dec-06 18:01:33 1016.400 12.4 41 -0.5         154.88
2018-Dec-06 19:01:44 1016.800 8.9 48 -1.6         154.88
2018-Dec-06 20:01:40 1017.300 6.6 54 -2.1         154.88
2018-Dec-06 21:01:52 1017.600 5.3 59 -2.1         154.88
2018-Dec-06 22:02:05 1017.500 4.1 62 -2.6         154.88
2018-Dec-06 23:01:46 1017.400 4.4 64 -1.9         154.88

Temperatura Máxima:24°    Temperatura Mínima:
Presión Máxima:1018.300 Hpa    Presión Mínima:1015.700 Hpa


Volver